Time;durP1;ratioP1;P1;durP2;ratioP2;P2;SDS_P1;SDS_P2;PMS_P1;PMS_P2;Temp;Humidity;BMP_temperature;BMP_pressure;BME280_temperature;BME280_humidity;BME280_pressure;Samples;Min_cycle;Max_cycle;Signal;HPM_P1;HPM_P2
2022/12/20 00:01:14;;;;;;;14.38;8.23;;;5.70;70.60;;;;;;2341626;53;21524;-74
2022/12/20 00:03:41;;;;;;;12.95;7.57;;;5.70;70.60;;;;;;2356180;54;21863;-74
2022/12/20 00:06:07;;;;;;;12.13;7.07;;;5.70;70.60;;;;;;2520930;52;21315;-73
2022/12/20 00:08:35;;;;;;;11.52;6.75;;;5.70;70.60;;;;;;2610376;52;20968;-73
2022/12/20 00:11:04;;;;;;;13.10;6.65;;;5.70;70.60;;;;;;2587576;52;20921;-75
2022/12/20 00:13:31;;;;;;;13.82;7.72;;;5.70;70.60;;;;;;2475681;52;20997;-73
2022/12/20 00:16:14;;;;;;;10.88;7.15;;;5.70;70.70;;;;;;2440225;52;21848;-72
2022/12/20 00:18:43;;;;;;;11.77;6.93;;;5.70;70.70;;;;;;2338766;53;20961;-75
2022/12/20 00:21:11;;;;;;;11.12;5.60;;;5.70;70.70;;;;;;2340209;54;21011;-74
2022/12/20 00:23:37;;;;;;;12.93;6.47;;;5.70;70.70;;;;;;2318902;54;21055;-77
2022/12/20 00:26:08;;;;;;;14.48;7.72;;;5.70;70.70;;;;;;2341891;54;21501;-75
2022/12/20 00:28:35;;;;;;;10.13;6.05;;;5.70;70.70;;;;;;2574482;52;20924;-73
2022/12/20 00:31:02;;;;;;;13.07;6.57;;;5.70;70.80;;;;;;2425862;52;20953;-71
2022/12/20 00:33:29;;;;;;;12.45;7.20;;;5.80;70.80;;;;;;2606012;52;21065;-74
2022/12/20 00:35:55;;;;;;;11.35;7.03;;;5.80;70.80;;;;;;2622239;52;20982;-75
2022/12/20 00:38:23;;;;;;;13.05;7.22;;;5.80;70.80;;;;;;2369478;53;21851;-75
2022/12/20 00:45:55;;;;;;;13.27;7.32;;;5.80;70.80;;;;;;2547810;52;20930;-75
2022/12/20 00:48:23;;;;;;;9.95;6.10;;;5.80;70.10;;;;;;2370681;53;21428;-72
2022/12/20 00:50:56;;;;;;;12.80;6.95;;;5.80;70.60;;;;;;2563997;52;20988;-75
2022/12/20 00:53:23;;;;;;;11.55;6.47;;;5.80;70.70;;;;;;2622203;52;20926;-74
2022/12/20 00:55:52;;;;;;;9.18;5.12;;;5.80;70.70;;;;;;2617545;52;20962;-74
2022/12/20 00:58:18;;;;;;;10.48;5.93;;;5.80;70.70;;;;;;2369911;53;20895;-77
2022/12/20 01:00:46;;;;;;;11.23;6.37;;;5.80;70.80;;;;;;2594003;52;20978;-73
2022/12/20 01:03:15;;;;;;;7.93;4.90;;;5.90;70.90;;;;;;2583092;52;20929;-73
2022/12/20 01:05:59;;;;;;;11.88;6.22;;;5.80;70.90;;;;;;2622437;52;20930;-71
2022/12/20 01:08:29;;;;;;;11.82;5.70;;;5.90;70.80;;;;;;2368923;53;20915;-72
2022/12/20 01:11:03;;;;;;;9.68;5.53;;;5.90;71.00;;;;;;2450321;52;22171;-72
2022/12/20 01:13:32;;;;;;;10.45;5.60;;;5.90;71.00;;;;;;2355643;53;20958;-74
2022/12/20 01:16:42;;;;;;;9.73;6.07;;;5.90;71.00;;;;;;2468562;52;20938;-74
2022/12/20 01:19:11;;;;;;;11.77;6.82;;;5.90;70.80;;;;;;2622155;52;20934;-73
2022/12/20 01:21:43;;;;;;;10.45;6.40;;;5.90;70.90;;;;;;2610698;52;21046;-76
2022/12/20 01:24:11;;;;;;;10.43;6.18;;;5.90;71.00;;;;;;2356856;53;21078;-73
2022/12/20 01:26:37;;;;;;;11.38;7.10;;;5.90;71.00;;;;;;2350713;53;20962;-73
2022/12/20 01:29:04;;;;;;;11.23;6.30;;;5.90;71.00;;;;;;2590375;52;20934;-72
2022/12/20 01:31:30;;;;;;;11.50;6.90;;;6.00;71.10;;;;;;2370145;53;21041;-74
2022/12/20 01:33:57;;;;;;;12.93;7.10;;;6.00;71.10;;;;;;2369985;53;20918;-74
2022/12/20 01:36:25;;;;;;;10.45;6.18;;;6.00;71.00;;;;;;2369975;53;20906;-73
2022/12/20 01:39:11;;;;;;;9.98;5.95;;;6.00;71.10;;;;;;2369949;53;20941;-73
2022/12/20 01:41:38;;;;;;;8.52;4.93;;;6.00;71.00;;;;;;2515100;52;21767;-72
2022/12/20 01:44:48;;;;;;;10.15;6.07;;;6.00;71.10;;;;;;2369665;53;21787;-74
2022/12/20 01:47:15;;;;;;;8.23;4.72;;;6.00;71.10;;;;;;2588822;52;20989;-74
2022/12/20 01:49:45;;;;;;;9.13;5.18;;;6.10;71.20;;;;;;2342095;53;20977;-75
2022/12/20 01:52:30;;;;;;;9.13;4.78;;;6.00;71.00;;;;;;2342304;53;20965;-72
2022/12/20 01:55:14;;;;;;;9.63;5.05;;;6.10;71.10;;;;;;2341911;53;20988;-76
2022/12/20 01:58:06;;;;;;;7.70;4.50;;;6.10;71.20;;;;;;2573559;53;21781;-74
2022/12/20 02:00:33;;;;;;;8.50;5.13;;;6.10;71.20;;;;;;2343080;53;20934;-74
2022/12/20 02:03:06;;;;;;;6.87;4.18;;;6.10;71.20;;;;;;2401371;53;21762;-74
2022/12/20 02:05:38;;;;;;;9.18;5.50;;;6.10;71.30;;;;;;2342091;53;20928;-71
2022/12/20 02:08:07;;;;;;;7.82;4.55;;;6.10;71.40;;;;;;2356661;53;21021;-72
2022/12/20 02:12:23;;;;;;;8.50;4.90;;;6.20;71.40;;;;;;2620530;52;20914;-74
2022/12/20 02:16:12;;;;;;;8.18;4.60;;;6.20;71.40;;;;;;2369723;53;20922;-73
2022/12/20 02:18:49;;;;;;;7.90;4.22;;;6.20;71.10;;;;;;2365562;53;20901;-75
2022/12/20 02:21:42;;;;;;;8.82;4.78;;;6.20;71.30;;;;;;2537422;52;20969;-73
2022/12/20 02:31:11;;;;;;;8.95;4.93;;;6.30;71.20;;;;;;2342261;53;20916;-73
2022/12/20 02:33:41;;;;;;;6.82;3.53;;;6.30;71.30;;;;;;2392870;53;21550;-72
2022/12/20 02:36:08;;;;;;;7.80;4.50;;;6.40;71.20;;;;;;2341413;53;20929;-73
2022/12/20 02:38:36;;;;;;;8.45;4.35;;;6.30;71.20;;;;;;2505723;52;20949;-75
2022/12/20 02:41:21;;;;;;;8.13;5.15;;;6.30;71.30;;;;;;2322239;54;20976;-74
2022/12/20 02:46:35;;;;;;;8.82;4.90;;;6.40;71.50;;;;;;2384857;52;20994;-74
2022/12/20 02:49:04;;;;;;;8.98;5.30;;;6.40;71.50;;;;;;2587765;52;21898;-73
2022/12/20 02:51:31;;;;;;;10.38;5.55;;;6.40;71.50;;;;;;2342068;53;20973;-73
2022/12/20 02:53:58;;;;;;;10.23;5.40;;;6.40;71.50;;;;;;2449166;52;20941;-74
2022/12/20 02:56:49;;;;;;;12.70;6.47;;;6.40;71.50;;;;;;2340989;53;20953;-76
2022/12/20 02:59:43;;;;;;;12.25;6.82;;;6.40;71.30;;;;;;2341392;53;21024;-74
2022/12/20 03:02:10;;;;;;;11.02;6.37;;;6.40;71.40;;;;;;2587648;52;20968;-76
2022/12/20 03:04:37;;;;;;;11.00;6.00;;;6.50;71.60;;;;;;2341906;53;21029;-76
2022/12/20 03:07:06;;;;;;;10.02;5.90;;;6.50;71.70;;;;;;2581865;52;21344;-72
2022/12/20 03:09:35;;;;;;;11.25;6.40;;;6.50;71.70;;;;;;2434888;52;21280;-76
2022/12/20 03:12:02;;;;;;;9.63;5.15;;;6.50;71.70;;;;;;2385461;52;20946;-73
2022/12/20 03:14:28;;;;;;;9.23;5.10;;;6.50;71.60;;;;;;2369729;53;20906;-73
2022/12/20 03:16:55;;;;;;;10.65;6.15;;;6.50;71.60;;;;;;2369709;53;20998;-74
2022/12/20 03:19:21;;;;;;;9.02;5.35;;;6.60;71.60;;;;;;2370025;53;20930;-75
2022/12/20 03:21:48;;;;;;;11.80;6.28;;;6.60;71.50;;;;;;2369715;53;20962;-72
2022/12/20 03:24:17;;;;;;;8.60;5.12;;;6.60;71.50;;;;;;2369724;53;20902;-74
2022/12/20 03:27:17;;;;;;;9.40;5.25;;;6.60;71.50;;;;;;2370488;53;20914;-75
2022/12/20 03:29:44;;;;;;;9.18;5.47;;;6.60;71.30;;;;;;2369970;53;20958;-75
2022/12/20 03:32:11;;;;;;;10.95;6.30;;;6.60;71.40;;;;;;2623113;52;20911;-74
2022/12/20 03:34:37;;;;;;;9.73;5.55;;;6.60;71.40;;;;;;2622526;52;21586;-72
2022/12/20 03:37:04;;;;;;;11.02;6.45;;;6.60;71.40;;;;;;2370130;53;20989;-74
2022/12/20 03:39:30;;;;;;;11.20;6.07;;;6.60;71.40;;;;;;2349971;53;20910;-74
2022/12/20 03:41:57;;;;;;;8.52;5.35;;;6.60;71.30;;;;;;2370333;53;21021;-74
2022/12/20 03:44:24;;;;;;;8.20;4.90;;;6.60;71.40;;;;;;2370298;53;20966;-75
2022/12/20 03:46:51;;;;;;;9.65;5.45;;;6.60;71.40;;;;;;2370051;53;20906;-72
2022/12/20 03:49:17;;;;;;;9.05;5.00;;;6.70;71.40;;;;;;2369760;53;21045;-73
2022/12/20 03:51:44;;;;;;;7.95;4.75;;;6.70;71.40;;;;;;2369710;53;20954;-75
2022/12/20 03:54:11;;;;;;;9.55;5.25;;;6.70;71.40;;;;;;2369991;53;20962;-72
2022/12/20 03:56:37;;;;;;;9.82;5.12;;;6.70;71.40;;;;;;2370427;53;21559;-77
2022/12/20 03:59:04;;;;;;;8.68;4.70;;;6.70;71.30;;;;;;2371113;53;20910;-72
2022/12/20 04:01:35;;;;;;;9.38;5.22;;;6.70;71.30;;;;;;2369996;53;21037;-75
2022/12/20 04:04:04;;;;;;;6.80;4.55;;;6.70;71.30;;;;;;2369834;53;20919;-77
2022/12/20 04:06:31;;;;;;;10.20;5.43;;;6.70;72.00;;;;;;2369912;53;20985;-74
2022/12/20 04:08:57;;;;;;;8.48;5.00;;;6.70;71.30;;;;;;2571580;52;21017;-74
2022/12/20 04:11:23;;;;;;;11.88;5.43;;;6.70;71.30;;;;;;2369951;53;21439;-73
2022/12/20 04:13:51;;;;;;;7.55;4.18;;;6.70;71.30;;;;;;2369311;53;21007;-74
2022/12/20 04:16:19;;;;;;;8.70;4.65;;;6.70;71.30;;;;;;2622829;52;21057;-75
2022/12/20 04:18:46;;;;;;;7.32;4.00;;;6.70;71.30;;;;;;2573913;52;20951;-74
2022/12/20 04:21:13;;;;;;;6.30;3.50;;;6.70;71.30;;;;;;2370009;53;21435;-73
2022/12/20 04:23:40;;;;;;;7.53;4.25;;;6.70;71.20;;;;;;2369918;53;20902;-72
2022/12/20 04:26:07;;;;;;;8.32;4.75;;;6.70;71.20;;;;;;2369063;53;20998;-74
2022/12/20 04:28:35;;;;;;;7.62;4.62;;;6.70;71.20;;;;;;2390989;52;21299;-73
2022/12/20 04:31:02;;;;;;;8.50;4.78;;;6.70;71.20;;;;;;2369471;53;21411;-74
2022/12/20 04:33:28;;;;;;;8.90;4.75;;;6.70;71.10;;;;;;2370254;53;20946;-74
2022/12/20 04:35:55;;;;;;;9.43;4.75;;;6.70;71.10;;;;;;2353908;53;21074;-73
2022/12/20 04:38:21;;;;;;;8.70;5.28;;;6.70;71.10;;;;;;2365386;53;21018;-73
2022/12/20 04:40:51;;;;;;;9.70;5.90;;;6.70;71.10;;;;;;2369656;53;20906;-76
2022/12/20 04:43:18;;;;;;;10.00;6.00;;;6.60;71.00;;;;;;2369774;53;20918;-73
2022/12/20 04:45:47;;;;;;;8.02;4.78;;;6.70;71.10;;;;;;2470088;52;20934;-72
2022/12/20 04:48:14;;;;;;;7.68;4.87;;;6.70;71.10;;;;;;2369355;53;20947;-74
2022/12/20 04:51:03;;;;;;;7.35;4.43;;;6.70;71.20;;;;;;2368945;53;21864;-73
2022/12/20 04:53:47;;;;;;;7.12;4.18;;;6.70;71.20;;;;;;2368636;53;21399;-73
2022/12/20 04:56:22;;;;;;;6.37;3.95;;;6.70;71.20;;;;;;2369571;54;21949;-75
2022/12/20 04:58:49;;;;;;;9.07;4.45;;;6.70;71.20;;;;;;2621947;52;20989;-76
2022/12/20 05:01:17;;;;;;;9.13;5.53;;;6.70;71.20;;;;;;2470906;52;21681;-72
2022/12/20 05:03:44;;;;;;;8.10;4.70;;;6.70;71.20;;;;;;2357022;53;21034;-72
2022/12/20 05:06:11;;;;;;;7.57;5.18;;;6.70;71.20;;;;;;2362792;53;21988;-74
2022/12/20 05:08:40;;;;;;;9.93;5.90;;;6.70;71.20;;;;;;2369635;53;20935;-73
2022/12/20 05:11:07;;;;;;;8.65;5.47;;;6.70;71.10;;;;;;2435826;52;20942;-72
2022/12/20 05:13:35;;;;;;;6.85;4.57;;;6.70;71.10;;;;;;2369631;53;21033;-73
2022/12/20 05:16:01;;;;;;;6.95;4.03;;;6.70;71.10;;;;;;2370020;53;20934;-74
2022/12/20 05:18:28;;;;;;;6.72;4.05;;;6.70;71.10;;;;;;2369195;53;20942;-72
2022/12/20 05:26:29;;;;;;;9.43;4.95;;;6.70;71.00;;;;;;2621229;52;20981;-73
2022/12/20 05:28:56;;;;;;;9.68;5.20;;;6.80;71.20;;;;;;2619646;52;21273;-74
2022/12/20 05:31:22;;;;;;;7.87;4.93;;;6.80;71.20;;;;;;2369115;53;21042;-74
2022/12/20 05:33:49;;;;;;;10.73;6.45;;;6.70;71.20;;;;;;2368286;53;21392;-73
2022/12/20 05:36:15;;;;;;;10.80;5.68;;;6.80;72.00;;;;;;2375407;52;21009;-74
2022/12/20 05:38:42;;;;;;;8.63;5.32;;;6.70;71.20;;;;;;2369652;53;21032;-76
2022/12/20 05:41:08;;;;;;;10.73;5.47;;;6.80;71.30;;;;;;2399853;52;21104;-73
2022/12/20 05:43:36;;;;;;;9.80;5.65;;;6.80;71.30;;;;;;2369396;53;20982;-73
2022/12/20 05:46:02;;;;;;;8.10;4.68;;;6.80;71.30;;;;;;2369144;53;21454;-72
2022/12/20 05:48:28;;;;;;;6.45;3.90;;;6.70;71.20;;;;;;2369557;53;20946;-76
2022/12/20 05:50:55;;;;;;;7.93;4.65;;;6.80;71.30;;;;;;2388704;52;20969;-76
2022/12/20 05:53:21;;;;;;;8.35;5.05;;;6.80;71.40;;;;;;2368391;53;21047;-73
2022/12/20 05:55:48;;;;;;;8.57;4.87;;;6.80;71.40;;;;;;2351507;53;20950;-73
2022/12/20 05:58:15;;;;;;;10.35;5.22;;;6.80;71.40;;;;;;2371443;52;20982;-74
2022/12/20 06:00:41;;;;;;;10.43;6.05;;;6.80;71.40;;;;;;2369351;53;21400;-72
2022/12/20 06:03:29;;;;;;;11.57;6.35;;;6.80;71.40;;;;;;2369507;53;20891;-74
2022/12/20 06:05:55;;;;;;;10.07;5.35;;;6.80;71.20;;;;;;2366245;53;20982;-74
2022/12/20 06:08:22;;;;;;;8.27;4.85;;;6.80;71.30;;;;;;2369410;53;20954;-74
2022/12/20 06:10:49;;;;;;;8.52;4.85;;;6.80;71.30;;;;;;2509990;52;21611;-74
2022/12/20 06:13:15;;;;;;;10.57;4.95;;;6.80;71.20;;;;;;2369465;53;21062;-73
2022/12/20 06:15:41;;;;;;;9.40;5.30;;;6.80;71.20;;;;;;2621791;52;20961;-73
2022/12/20 06:18:08;;;;;;;10.35;5.40;;;6.80;71.30;;;;;;2577048;52;21525;-76
2022/12/20 06:20:34;;;;;;;9.27;5.53;;;6.80;71.30;;;;;;2368994;53;21061;-73
2022/12/20 06:23:01;;;;;;;10.05;5.65;;;6.80;71.20;;;;;;2369502;53;21435;-74
2022/12/20 06:25:27;;;;;;;8.50;5.62;;;6.80;71.20;;;;;;2404341;52;20933;-72
2022/12/20 06:27:53;;;;;;;9.98;5.28;;;6.80;71.20;;;;;;2369097;53;20950;-76
2022/12/20 06:30:28;;;;;;;8.52;5.15;;;6.80;71.20;;;;;;2369551;53;20990;-73
2022/12/20 06:32:59;;;;;;;8.25;4.70;;;6.90;71.10;;;;;;2552273;52;20946;-73
2022/12/20 06:35:25;;;;;;;10.52;5.65;;;6.90;71.20;;;;;;2413834;53;21325;-73
2022/12/20 06:41:31;;;;;;;6.65;4.20;;;6.90;71.00;;;;;;2366076;53;20974;-73
2022/12/20 06:43:59;;;;;;;9.43;5.70;;;6.80;71.10;;;;;;2353297;53;21005;-74
2022/12/20 06:46:26;;;;;;;9.15;5.45;;;6.80;71.10;;;;;;2369827;53;21056;-74
2022/12/20 06:48:54;;;;;;;9.93;5.68;;;6.80;71.10;;;;;;2409155;52;21390;-75
2022/12/20 06:51:21;;;;;;;10.65;6.18;;;6.80;71.20;;;;;;2357394;53;21018;-74
2022/12/20 06:53:47;;;;;;;9.30;5.82;;;6.80;71.20;;;;;;2620608;52;20922;-75
2022/12/20 06:56:14;;;;;;;8.77;5.75;;;6.90;71.30;;;;;;2368420;53;21096;-73
2022/12/20 06:58:40;;;;;;;8.48;5.45;;;6.80;71.20;;;;;;2373678;52;21336;-74
2022/12/20 07:01:06;;;;;;;8.85;5.53;;;6.90;71.40;;;;;;2369308;53;20917;-74
2022/12/20 07:03:32;;;;;;;8.93;6.03;;;6.90;71.30;;;;;;2368524;53;20950;-74
2022/12/20 07:05:59;;;;;;;8.82;5.53;;;6.80;71.20;;;;;;2507927;52;21053;-73
2022/12/20 07:08:25;;;;;;;9.18;5.12;;;6.90;71.20;;;;;;2621985;52;20899;-73
2022/12/20 07:10:53;;;;;;;10.07;6.20;;;6.90;71.20;;;;;;2368249;53;20985;-74
2022/12/20 07:13:19;;;;;;;11.27;6.45;;;6.90;71.30;;;;;;2369438;53;20902;-74
2022/12/20 07:15:46;;;;;;;13.57;8.32;;;6.90;71.30;;;;;;2369196;53;21014;-76
2022/12/20 07:18:12;;;;;;;12.00;7.53;;;6.90;71.30;;;;;;2368342;53;21474;-73
2022/12/20 07:20:39;;;;;;;12.05;7.05;;;6.90;71.30;;;;;;2365827;53;21014;-72
2022/12/20 07:23:05;;;;;;;8.80;5.72;;;6.90;71.30;;;;;;2354448;53;21002;-76
2022/12/20 07:25:31;;;;;;;12.70;7.90;;;6.90;71.30;;;;;;2369230;53;20891;-75
2022/12/20 07:27:58;;;;;;;14.15;9.63;;;6.90;71.30;;;;;;2410759;52;21433;-72
2022/12/20 07:30:28;;;;;;;13.50;9.68;;;6.90;71.30;;;;;;2375957;52;20985;-74
2022/12/20 07:32:54;;;;;;;16.12;11.40;;;6.90;71.30;;;;;;2349425;54;20938;-74
2022/12/20 07:35:20;;;;;;;17.17;12.07;;;6.90;71.30;;;;;;2616608;52;21862;-75
2022/12/20 07:37:47;;;;;;;16.42;10.57;;;6.90;71.30;;;;;;2341946;53;20972;-74
2022/12/20 07:40:15;;;;;;;15.88;9.45;;;6.90;71.40;;;;;;2349120;53;20922;-74
2022/12/20 07:42:41;;;;;;;17.15;10.73;;;6.90;71.40;;;;;;2592122;52;21384;-76
2022/12/20 07:45:12;;;;;;;18.02;11.82;;;6.90;71.40;;;;;;2369682;53;21285;-76
2022/12/20 07:47:38;;;;;;;13.25;9.00;;;6.90;71.30;;;;;;2621913;52;20915;-74
2022/12/20 07:50:07;;;;;;;12.57;7.62;;;6.90;71.30;;;;;;2368786;53;21780;-74
2022/12/20 07:52:34;;;;;;;12.27;7.68;;;7.00;71.40;;;;;;2387027;52;21010;-77
2022/12/20 07:55:01;;;;;;;10.80;6.78;;;6.90;71.30;;;;;;2462018;52;21006;-75
2022/12/20 07:57:54;;;;;;;10.98;7.00;;;7.00;71.40;;;;;;2620651;52;21061;-76
2022/12/20 08:00:30;;;;;;;13.30;7.75;;;7.00;71.20;;;;;;2622355;52;21469;-74
2022/12/20 08:03:17;;;;;;;12.05;8.02;;;7.00;71.30;;;;;;2533925;52;20934;-75
2022/12/20 08:05:45;;;;;;;14.23;8.02;;;7.00;71.20;;;;;;2621402;52;20907;-75
2022/12/20 08:08:11;;;;;;;12.57;8.27;;;7.00;71.40;;;;;;2621503;52;21559;-72
2022/12/20 08:10:37;;;;;;;12.23;7.68;;;6.90;71.40;;;;;;2484246;52;21006;-75
2022/12/20 08:13:04;;;;;;;10.60;6.93;;;7.00;71.50;;;;;;2621653;52;20978;-74
2022/12/20 08:15:31;;;;;;;10.48;6.62;;;7.00;71.50;;;;;;2473864;52;21029;-72
2022/12/20 08:17:57;;;;;;;14.23;8.05;;;7.00;71.50;;;;;;2369063;53;20934;-75
2022/12/20 08:20:24;;;;;;;13.23;7.22;;;7.00;71.50;;;;;;2368341;53;20938;-72
2022/12/20 08:22:50;;;;;;;9.32;6.50;;;7.00;71.60;;;;;;2369214;53;21504;-73
2022/12/20 08:25:17;;;;;;;10.82;7.28;;;7.00;71.60;;;;;;2368254;53;20934;-73
2022/12/20 08:27:44;;;;;;;12.27;8.00;;;7.00;71.60;;;;;;2367784;53;21009;-73
2022/12/20 08:30:11;;;;;;;10.57;7.07;;;7.00;71.70;;;;;;2369094;53;21277;-77
2022/12/20 08:32:37;;;;;;;10.98;6.87;;;7.10;71.80;;;;;;2506017;52;21002;-77
2022/12/20 08:35:05;;;;;;;13.23;8.07;;;7.10;71.80;;;;;;2538137;52;21023;-73
2022/12/20 08:37:31;;;;;;;14.18;7.90;;;7.10;71.80;;;;;;2444139;52;20982;-77
2022/12/20 08:39:59;;;;;;;11.95;7.78;;;7.10;71.80;;;;;;2475219;52;20942;-75
2022/12/20 08:42:26;;;;;;;12.35;7.47;;;7.10;71.80;;;;;;2368648;53;20959;-74
2022/12/20 08:44:52;;;;;;;12.82;7.87;;;7.20;71.90;;;;;;2443683;52;21009;-77
2022/12/20 08:47:19;;;;;;;13.88;8.10;;;7.20;71.90;;;;;;2369580;53;20930;-76
2022/12/20 08:49:45;;;;;;;13.80;8.75;;;7.20;72.00;;;;;;2479494;52;20955;-75
2022/12/20 08:52:13;;;;;;;14.90;8.73;;;7.20;71.90;;;;;;2369033;53;20923;-77
2022/12/20 08:54:39;;;;;;;12.27;7.65;;;7.20;71.90;;;;;;2621628;52;21022;-74
2022/12/20 08:57:06;;;;;;;13.25;7.40;;;7.20;72.00;;;;;;2621286;52;21369;-76
2022/12/20 08:59:33;;;;;;;16.73;9.10;;;7.30;72.10;;;;;;2494095;52;20943;-74
2022/12/20 09:01:59;;;;;;;22.23;12.73;;;7.30;72.20;;;;;;2419292;52;20961;-75
2022/12/20 09:04:26;;;;;;;20.27;12.23;;;7.30;72.10;;;;;;2614858;52;20970;-74
2022/12/20 09:06:52;;;;;;;20.15;12.60;;;7.30;72.20;;;;;;2368653;53;21439;-78
2022/12/20 09:09:18;;;;;;;18.90;11.18;;;7.40;72.40;;;;;;2614820;52;20962;-76
2022/12/20 09:11:44;;;;;;;14.52;9.40;;;7.40;72.50;;;;;;2368810;53;20947;-75
2022/12/20 09:14:11;;;;;;;18.98;11.98;;;7.40;72.50;;;;;;2375009;52;21701;-76
2022/12/20 09:16:37;;;;;;;15.02;9.70;;;7.50;72.70;;;;;;2500111;52;21026;-76
2022/12/20 09:19:05;;;;;;;17.20;10.80;;;7.50;72.80;;;;;;2371726;53;21203;-76
2022/12/20 09:21:32;;;;;;;17.05;11.50;;;7.60;72.90;;;;;;2548119;52;20931;-77
2022/12/20 09:23:59;;;;;;;16.65;11.40;;;7.60;72.90;;;;;;2435934;52;20981;-77
2022/12/20 09:26:25;;;;;;;17.58;11.00;;;7.60;72.90;;;;;;2369067;53;21419;-76
2022/12/20 09:28:51;;;;;;;17.05;10.90;;;7.70;72.90;;;;;;2457467;52;21400;-76
2022/12/20 09:31:19;;;;;;;16.90;10.23;;;7.70;72.80;;;;;;2369397;53;20922;-79
2022/12/20 09:33:46;;;;;;;14.00;8.77;;;7.80;72.90;;;;;;2413132;52;21230;-73
2022/12/20 09:36:13;;;;;;;16.10;9.73;;;7.80;73.00;;;;;;2478742;52;21534;-75
2022/12/20 09:38:39;;;;;;;20.42;12.40;;;7.80;73.00;;;;;;2369028;53;21347;-76
2022/12/20 09:41:07;;;;;;;16.58;10.38;;;7.90;73.20;;;;;;2368848;53;21212;-77
2022/12/20 09:43:33;;;;;;;16.58;9.43;;;7.90;73.20;;;;;;2494753;52;21006;-76
2022/12/20 09:46:00;;;;;;;16.35;9.55;;;7.90;73.30;;;;;;2524697;52;20935;-73
2022/12/20 09:48:34;;;;;;;13.23;7.68;;;8.00;73.30;;;;;;2368831;52;20911;-75
2022/12/20 09:55:15;;;;;;;28.85;18.42;;;8.10;73.50;;;;;;2555236;52;21522;-76
2022/12/20 09:57:57;;;;;;;10.40;7.07;;;8.20;73.00;;;;;;2377587;52;21547;-74
2022/12/20 10:00:24;;;;;;;;;;;8.30;73.40;;;;;;2376045;53;21281;-75
2022/12/20 10:02:50;;;;;;;14.65;8.88;;;8.30;72.90;;;;;;2395035;52;20085;-74
2022/12/20 10:05:54;;;;;;;55.90;36.25;;;8.40;73.40;;;;;;2621174;52;20951;-76
2022/12/20 10:08:42;;;;;;;41.28;28.10;;;8.40;73.40;;;;;;2337500;54;20957;-77
2022/12/20 10:11:50;;;;;;;38.35;24.50;;;8.50;73.50;;;;;;2341251;53;21326;-73
2022/12/20 10:14:49;;;;;;;33.35;20.40;;;8.50;73.60;;;;;;2585690;52;21092;-77
2022/12/20 10:18:10;;;;;;;20.08;12.70;;;8.60;73.80;;;;;;2344894;54;21317;-75
2022/12/20 10:23:22;;;;;;;15.75;10.10;;;8.60;73.90;;;;;;2368740;53;20971;-76
2022/12/20 10:25:51;;;;;;;10.57;6.28;;;8.70;73.80;;;;;;2586978;52;21504;-77
2022/12/20 10:28:17;;;;;;;9.85;6.43;;;8.80;73.90;;;;;;2341621;53;21016;-74
2022/12/20 10:30:44;;;;;;;10.68;6.87;;;8.80;73.90;;;;;;2369011;53;21669;-75
2022/12/20 10:33:20;;;;;;;11.80;7.55;;;8.90;74.10;;;;;;2431605;52;21241;-77
2022/12/20 10:35:46;;;;;;;10.65;7.22;;;9.00;74.20;;;;;;2368780;53;21033;-74
2022/12/20 10:38:16;;;;;;;12.00;7.43;;;9.00;74.50;;;;;;2436177;52;21443;-78
2022/12/20 10:40:44;;;;;;;9.55;6.00;;;9.00;74.20;;;;;;2428406;52;21383;-76
2022/12/20 10:43:45;;;;;;;10.55;6.00;;;9.10;74.20;;;;;;2436831;52;20938;-76
2022/12/20 10:46:11;;;;;;;8.15;5.55;;;9.20;74.20;;;;;;2555731;52;21009;-76
2022/12/20 10:48:42;;;;;;;7.55;4.87;;;9.20;74.20;;;;;;2489674;52;20995;-76
2022/12/20 10:51:21;;;;;;;9.18;5.75;;;9.30;74.10;;;;;;2368938;53;20938;-75
2022/12/20 10:54:11;;;;;;;10.27;6.80;;;9.30;74.00;;;;;;2521534;52;21418;-76
2022/12/20 10:56:38;;;;;;;12.85;8.23;;;9.40;73.90;;;;;;2586944;52;21510;-75
2022/12/20 11:01:02;;;;;;;10.98;7.47;;;9.40;74.10;;;;;;2583937;52;20986;-76
2022/12/20 11:03:29;;;;;;;;;;;9.50;73.50;;;;;;2513995;52;20915;-73
2022/12/20 11:06:02;;;;;;;10.10;6.20;;;9.60;73.50;;;;;;2467491;52;20571;-75
2022/12/20 11:08:31;;;;;;;10.80;7.15;;;9.60;74.00;;;;;;2369978;52;21025;-74
2022/12/20 11:11:22;;;;;;;9.95;6.97;;;9.70;74.10;;;;;;2369059;53;21010;-74
2022/12/20 11:13:49;;;;;;;9.35;6.45;;;9.70;74.00;;;;;;2620420;52;21614;-77
2022/12/20 11:16:49;;;;;;;11.27;7.05;;;9.70;74.10;;;;;;2369186;53;21396;-76
2022/12/20 11:24:43;;;;;;;11.12;6.93;;;9.80;73.70;;;;;;2369090;53;20926;-77
2022/12/20 11:27:19;;;;;;;7.82;4.90;;;9.80;73.70;;;;;;2621278;52;20986;-76
2022/12/20 11:30:11;;;;;;;9.32;6.15;;;9.90;73.80;;;;;;2475526;52;21403;-75
2022/12/20 11:33:33;;;;;;;11.40;7.68;;;10.00;72.60;;;;;;2369495;53;20930;-74
2022/12/20 11:37:40;;;;;;;10.55;6.62;;;10.00;72.70;;;;;;2621041;52;21005;-76
2022/12/20 11:43:01;;;;;;;14.55;9.25;;;10.00;72.90;;;;;;2368555;53;20985;-75
2022/12/20 11:52:23;;;;;;;13.23;8.83;;;10.20;72.30;;;;;;2607212;52;1370601;-75
2022/12/20 11:55:12;;;;;;;7.70;4.50;;;10.30;72.40;;;;;;2382241;52;20986;-77
2022/12/20 11:58:22;;;;;;;8.45;5.12;;;10.30;72.90;;;;;;2460649;52;21833;-77
2022/12/20 12:01:08;;;;;;;9.23;6.22;;;10.30;72.80;;;;;;2368079;53;20927;-75
2022/12/20 12:03:36;;;;;;;10.57;6.65;;;10.40;73.20;;;;;;2368854;53;20902;-74
2022/12/20 12:06:19;;;;;;;11.23;7.47;;;10.40;73.30;;;;;;2555186;52;21931;-74
2022/12/20 12:12:19;;;;;;;10.68;7.25;;;10.40;73.20;;;;;;2368874;53;20914;-77
2022/12/20 12:15:11;;;;;;;9.02;6.28;;;10.50;73.30;;;;;;2368878;53;20915;-76
2022/12/20 12:18:04;;;;;;;12.85;8.27;;;10.60;73.10;;;;;;2369283;53;20906;-75
2022/12/20 12:21:26;;;;;;;11.12;7.70;;;10.60;73.00;;;;;;2368403;53;21288;-77
2022/12/20 12:24:11;;;;;;;14.90;9.68;;;10.70;73.00;;;;;;2371678;53;21005;-77
2022/12/20 12:26:39;;;;;;;15.75;9.48;;;10.70;73.10;;;;;;2368944;53;20973;-74
2022/12/20 12:29:12;;;;;;;18.95;11.27;;;10.70;73.20;;;;;;2496152;52;21014;-74
2022/12/20 12:31:54;;;;;;;15.15;10.35;;;10.80;73.30;;;;;;2438755;52;20950;-75
2022/12/20 12:39:42;;;;;;;15.27;10.00;;;10.80;73.20;;;;;;2341295;53;20981;-75
2022/12/20 12:49:03;;;;;;;13.73;8.82;;;10.80;73.10;;;;;;2512298;52;21032;-75
2022/12/20 12:51:37;;;;;;;8.73;5.85;;;10.90;73.00;;;;;;2341366;53;21342;-77
2022/12/20 12:54:31;;;;;;;13.02;8.23;;;11.00;72.90;;;;;;2586744;52;21398;-77
2022/12/20 12:57:02;;;;;;;11.38;7.35;;;11.00;72.80;;;;;;2586875;52;20932;-75
2022/12/20 12:59:50;;;;;;;11.40;8.40;;;11.00;73.10;;;;;;2587415;52;21441;-74
2022/12/20 13:02:24;;;;;;;15.02;9.63;;;11.10;72.90;;;;;;2407636;52;20988;-76
2022/12/20 13:08:32;;;;;;;16.70;11.40;;;11.10;73.10;;;;;;2493784;52;20967;-78
2022/12/20 13:10:59;;;;;;;10.82;7.35;;;11.20;72.40;;;;;;2568128;52;21047;-76
2022/12/20 13:13:26;;;;;;;12.00;8.60;;;11.20;73.00;;;;;;2376859;53;20927;-76
2022/12/20 13:16:05;;;;;;;16.55;10.82;;;11.20;73.00;;;;;;2586950;52;20930;-75
2022/12/20 13:18:31;;;;;;;13.73;9.65;;;11.20;72.70;;;;;;2571507;52;21575;-75
2022/12/20 13:21:17;;;;;;;14.23;9.63;;;11.20;72.90;;;;;;2341016;53;20990;-77
2022/12/20 13:23:44;;;;;;;13.07;8.63;;;11.20;72.70;;;;;;2455507;52;21439;-76
2022/12/20 13:26:55;;;;;;;14.77;8.90;;;11.20;73.00;;;;;;2587305;52;21428;-76
2022/12/20 13:29:24;;;;;;;14.95;9.07;;;11.30;72.40;;;;;;2520961;52;20925;-76
2022/12/20 13:31:50;;;;;;;20.98;11.48;;;11.30;73.10;;;;;;2340053;53;21494;-74
2022/12/20 13:35:27;;;;;;;17.90;12.00;;;11.30;73.10;;;;;;2543345;52;20913;-78
2022/12/20 13:39:35;;;;;;;15.40;9.48;;;11.30;72.30;;;;;;2401696;52;21022;-78
2022/12/20 13:42:37;;;;;;;15.60;9.93;;;11.30;72.60;;;;;;2415211;52;20982;-77
2022/12/20 13:45:04;;;;;;;14.70;10.52;;;11.40;72.80;;;;;;2368855;53;20938;-75
2022/12/20 13:47:39;;;;;;;13.75;9.60;;;11.40;73.30;;;;;;2512106;52;21443;-76
2022/12/20 13:50:26;;;;;;;13.80;9.32;;;11.50;73.30;;;;;;2457428;52;20934;-77
2022/12/20 13:52:53;;;;;;;14.30;9.50;;;11.50;73.10;;;;;;2620706;52;20974;-76
2022/12/20 13:55:26;;;;;;;13.43;9.60;;;11.50;73.40;;;;;;2425434;52;20918;-76
2022/12/20 13:57:52;;;;;;;16.77;11.68;;;11.50;73.30;;;;;;2464928;52;20978;-75
2022/12/20 14:00:24;;;;;;;13.50;9.75;;;11.50;73.30;;;;;;2375121;52;21472;-75
2022/12/20 14:02:50;;;;;;;13.82;9.38;;;11.50;73.10;;;;;;2394610;52;21546;-76
2022/12/20 14:05:27;;;;;;;18.15;12.18;;;11.50;73.20;;;;;;2598390;52;21034;-77
2022/12/20 14:08:13;;;;;;;16.37;11.88;;;11.60;73.10;;;;;;2368499;53;21498;-78
2022/12/20 14:10:39;;;;;;;12.37;9.45;;;11.60;72.60;;;;;;2621102;52;21487;-76
2022/12/20 14:13:25;;;;;;;14.25;9.15;;;11.60;72.80;;;;;;2467172;52;21046;-74
2022/12/20 14:15:52;;;;;;;14.35;10.00;;;11.70;72.60;;;;;;2579552;52;20939;-80
2022/12/20 14:18:23;;;;;;;16.75;11.93;;;11.60;72.70;;;;;;2462478;52;21427;-80
2022/12/20 14:21:00;;;;;;;19.62;12.88;;;11.60;72.40;;;;;;2368586;53;21270;-75
2022/12/20 14:23:39;;;;;;;14.38;10.27;;;11.70;72.30;;;;;;2369167;53;21006;-78
2022/12/20 14:26:05;;;;;;;14.20;10.07;;;11.60;72.30;;;;;;2368716;53;20949;-75